Garretson, South Dakota
Current Conditions -  °F | °C
As of 2:56 PM on Tuesday 27 Jan 2015 (Local Time) from KFSD Reporting Station
Overcast Overcast  
Wind Chill: 30°   Ceiling: 25000
Heat Index: 37°   Visibility: 10mi
Dew Point: 32°   Wind: 10mph
Humidity: 82%   Direction: 130°SE
Pressure: 30.02"   Gusts: NA
Location:  43.72°N, 96.5°W
Report Text: KFSD 272056Z 13009KT 10SM FEW009 OVC250 03/00 A3002 RMK AO2 SLP182 T00280000 58021
Loading
Personal Weather Stations






























Interactive Weather Map New forecast layout! Learn more

10-Day Weather Forecast

Advertisements
Track Severe Weather on mobile